Time;durP1;ratioP1;P1;durP2;ratioP2;P2;SDS_P1;SDS_P2;PMS_P1;PMS_P2;Temp;Humidity;BMP_temperature;BMP_pressure;BME280_temperature;BME280_humidity;BME280_pressure;Samples;Min_cycle;Max_cycle;Signal;HPM_P1;HPM_P2
2021/10/28 00:12:56;;;;;;;11.50;7.07;;;6.40;99.90;;;;;;6252622;28;20052;-81
2021/10/28 00:15:58;;;;;;;10.75;8.13;;;6.00;99.90;;;;;;6238083;28;20143;-82
2021/10/28 00:19:02;;;;;;;11.32;8.43;;;;;;;;;;6247213;28;20041;-81
2021/10/28 00:22:04;;;;;;;14.10;8.82;;;5.60;99.90;;;;;;6252725;28;20047;-80
2021/10/28 00:25:05;;;;;;;12.70;9.40;;;5.80;99.90;;;;;;6228730;28;20080;-81
2021/10/28 00:28:07;;;;;;;13.85;8.82;;;;;;;;;;6272282;28;20275;-81
2021/10/28 00:31:07;;;;;;;12.88;8.40;;;5.50;99.90;;;;;;6291074;28;20043;-81
2021/10/28 00:34:09;;;;;;;15.25;10.27;;;;;;;;;;6278506;28;20059;-81
2021/10/28 00:37:10;;;;;;;13.75;9.70;;;6.60;99.90;;;;;;6276029;28;20036;-82
2021/10/28 00:40:11;;;;;;;14.38;9.98;;;;;;;;;;6301396;28;20028;-80
2021/10/28 00:43:12;;;;;;;12.82;9.20;;;5.60;99.90;;;;;;6293889;28;20033;-80
2021/10/28 00:46:16;;;;;;;15.07;9.77;;;5.60;99.90;;;;;;6292723;28;20049;-79
2021/10/28 00:49:17;;;;;;;14.95;11.05;;;;;;;;;;6276569;28;20021;-81
2021/10/28 00:52:18;;;;;;;16.48;12.23;;;5.90;99.90;;;;;;6291754;28;20454;-82
2021/10/28 00:55:19;;;;;;;18.33;11.80;;;;;;;;;;6291395;28;20059;-79
2021/10/28 00:58:23;;;;;;;19.98;12.65;;;6.00;99.90;;;;;;6291916;28;20024;-81
2021/10/28 01:01:23;;;;;;;20.30;12.65;;;6.00;99.90;;;;;;6275437;28;20090;-81
2021/10/28 01:04:24;;;;;;;19.10;12.05;;;;;;;;;;6291313;28;20459;-80
2021/10/28 01:07:25;;;;;;;19.70;11.38;;;;;;;;;;6315731;28;20038;-80
2021/10/28 01:10:26;;;;;;;15.50;10.90;;;;;;;;;;6317594;28;20150;-81
2021/10/28 01:13:27;;;;;;;15.55;11.35;;;6.20;99.90;;;;;;6315849;28;20024;-80
2021/10/28 01:16:28;;;;;;;16.90;11.93;;;;;;;;;;6298260;28;20464;-81
2021/10/28 01:19:29;;;;;;;17.60;11.77;;;;;;;;;;6278210;28;20029;-81
2021/10/28 01:22:30;;;;;;;15.63;10.27;;;;;;;;;;6316311;28;20028;-80
2021/10/28 01:25:31;;;;;;;19.55;11.30;;;;;;;;;;6295057;28;20044;-80
2021/10/28 01:28:33;;;;;;;16.88;11.00;;;5.50;99.90;;;;;;6295237;28;20020;-80
2021/10/28 01:31:34;;;;;;;16.73;11.32;;;5.40;99.90;;;;;;6293068;28;20417;-82
2021/10/28 01:34:40;;;;;;;16.85;10.05;;;5.10;99.90;;;;;;6282833;28;20036;-82
2021/10/28 01:37:42;;;;;;;17.73;11.50;;;5.20;99.90;;;;;;6290795;28;20490;-82
2021/10/28 01:40:43;;;;;;;16.95;12.98;;;;;;;;;;6281073;28;20066;-80
2021/10/28 01:43:44;;;;;;;18.75;11.93;;;5.20;99.90;;;;;;6316931;28;20377;-80
2021/10/28 01:46:44;;;;;;;20.48;12.65;;;5.20;99.90;;;;;;6304422;28;20024;-83
2021/10/28 01:49:45;;;;;;;21.48;13.18;;;5.40;99.90;;;;;;6271123;28;20036;-81
2021/10/28 01:52:46;;;;;;;20.73;12.50;;;;;;;;;;6279705;28;20111;-80
2021/10/28 01:55:47;;;;;;;19.00;13.02;;;;;;;;;;6285055;28;20051;-81
2021/10/28 01:58:51;;;;;;;19.63;13.27;;;5.50;99.90;;;;;;6312242;28;20032;-82
2021/10/28 02:01:52;;;;;;;20.35;13.80;;;5.50;99.90;;;;;;6273546;28;20032;-82
2021/10/28 02:04:53;;;;;;;18.98;12.52;;;;;;;;;;6288088;28;20055;-81
2021/10/28 02:07:54;;;;;;;19.38;12.75;;;;;;;;;;6301379;28;20488;-81
2021/10/28 02:10:54;;;;;;;18.05;12.75;;;5.20;99.90;;;;;;6320709;28;20059;-81
2021/10/28 02:13:58;;;;;;;20.27;13.20;;;;;;;;;;6320152;28;20655;-81
2021/10/28 02:16:59;;;;;;;19.02;12.50;;;5.80;99.90;;;;;;6304596;28;20440;-81
2021/10/28 02:20:00;;;;;;;19.75;13.15;;;;;;;;;;6301069;28;20077;-81
2021/10/28 02:23:01;;;;;;;18.52;12.18;;;5.40;99.90;;;;;;6296345;28;20020;-82
2021/10/28 02:26:01;;;;;;;16.00;11.05;;;5.20;99.90;;;;;;6273816;28;20135;-82
2021/10/28 02:29:03;;;;;;;17.67;11.77;;;5.30;99.90;;;;;;6295174;28;20043;-82
2021/10/28 02:32:04;;;;;;;18.52;12.75;;;4.90;99.90;;;;;;6278623;28;20028;-83
2021/10/28 02:35:05;;;;;;;17.45;11.45;;;;;;;;;;6263527;28;20118;-83
2021/10/28 02:38:06;;;;;;;18.87;13.80;;;4.80;99.90;;;;;;6272511;28;20086;-80
2021/10/28 02:41:07;;;;;;;35.70;18.70;;;;;;;;;;6286494;28;20259;-83
2021/10/28 02:44:09;;;;;;;20.55;14.00;;;5.30;99.90;;;;;;6273382;28;20036;-83
2021/10/28 02:47:10;;;;;;;136.18;57.15;;;;;;;;;;6306587;28;20051;-81
2021/10/28 02:50:10;;;;;;;57.90;30.05;;;5.10;99.90;;;;;;6265862;28;20545;-81
2021/10/28 02:53:11;;;;;;;62.25;30.85;;;;;;;;;;6270808;28;20040;-81
2021/10/28 02:56:12;;;;;;;80.13;33.70;;;;;;;;;;6277004;28;20064;-82
2021/10/28 02:59:13;;;;;;;26.98;16.05;;;;;;;;;;6262600;28;20047;-82
2021/10/28 03:02:14;;;;;;;32.53;16.55;;;4.80;99.90;;;;;;6301384;28;20036;-81
2021/10/28 03:05:15;;;;;;;33.10;17.83;;;4.60;99.90;;;;;;6271743;28;20447;-82
2021/10/28 03:08:16;;;;;;;20.67;14.45;;;;;;;;;;6305507;28;20028;-82
2021/10/28 03:11:17;;;;;;;22.35;14.95;;;4.80;99.90;;;;;;6294651;28;20024;-81
2021/10/28 03:14:22;;;;;;;20.42;12.70;;;5.00;99.90;;;;;;6282229;28;20028;-82
2021/10/28 03:27:05;;;;;;;18.02;11.60;;;5.10;99.90;;;;;;6313564;28;20033;-82
2021/10/28 03:30:07;;;;;;;19.65;11.70;;;4.90;99.90;;;;;;6295746;28;20086;-81
2021/10/28 03:33:11;;;;;;;18.33;11.70;;;4.90;99.90;;;;;;6276984;28;20563;-81
2021/10/28 03:36:17;;;;;;;23.55;13.90;;;4.90;99.90;;;;;;6298764;28;20058;-82
2021/10/28 03:49:21;;;;;;;15.32;11.25;;;;;;;;;;6293440;28;20429;-81
2021/10/28 04:21:49;;;;;;;24.85;14.90;;;5.00;99.90;;;;;;6298971;28;20032;-84
2021/10/28 04:31:30;;;;;;;15.50;10.55;;;5.30;99.90;;;;;;6303801;28;20529;-83
2021/10/28 04:34:31;;;;;;;14.60;10.55;;;4.80;99.90;;;;;;6270103;28;20125;-83
2021/10/28 04:37:32;;;;;;;14.63;11.23;;;;;;;;;;6283844;28;20047;-82
2021/10/28 04:40:33;;;;;;;13.55;10.85;;;;;;;;;;6303848;28;20046;-83
2021/10/28 04:43:34;;;;;;;17.00;11.50;;;4.90;99.90;;;;;;6275373;28;20094;-84
2021/10/28 04:46:35;;;;;;;17.20;11.07;;;4.50;99.90;;;;;;6269403;28;20029;-84
2021/10/28 04:49:36;;;;;;;17.42;10.43;;;4.50;99.90;;;;;;6298423;28;20098;-83
2021/10/28 04:52:38;;;;;;;17.23;12.02;;;;;;;;;;6292604;28;20025;-84
2021/10/28 04:55:39;;;;;;;19.38;13.02;;;;;;;;;;6266434;28;20473;-85
2021/10/28 04:58:39;;;;;;;21.40;12.93;;;5.00;99.90;;;;;;6271062;28;20108;-84
2021/10/28 05:01:40;;;;;;;20.80;13.90;;;4.90;99.90;;;;;;6272414;28;20032;-83
2021/10/28 05:04:41;;;;;;;21.25;12.98;;;;;;;;;;6292864;28;20103;-83
2021/10/28 05:07:42;;;;;;;16.35;12.27;;;4.80;99.90;;;;;;6268391;28;20020;-84
2021/10/28 05:10:43;;;;;;;19.30;12.70;;;;;;;;;;6277523;28;20052;-82
2021/10/28 05:13:47;;;;;;;19.05;12.65;;;;;;;;;;6286992;28;20029;-92
2021/10/28 05:16:50;;;;;;;16.80;11.80;;;;;;;;;;6267715;28;20068;-85
2021/10/28 05:19:51;;;;;;;17.20;12.20;;;;;;;;;;6272845;28;20020;-84
2021/10/28 05:22:52;;;;;;;27.58;18.48;;;;;;;;;;6299498;28;20077;-84
2021/10/28 05:25:53;;;;;;;16.90;11.80;;;;;;;;;;6316985;28;20031;-85
2021/10/28 05:28:54;;;;;;;16.25;12.25;;;;;;;;;;6316184;28;20085;-83
2021/10/28 05:31:55;;;;;;;18.27;11.90;;;;;;;;;;6298751;28;20028;-81
2021/10/28 05:34:59;;;;;;;17.42;11.15;;;4.70;99.90;;;;;;6316927;28;20158;-83
2021/10/28 05:38:00;;;;;;;15.10;10.38;;;;;;;;;;6315559;28;20123;-82
2021/10/28 05:41:01;;;;;;;14.00;9.75;;;;;;;;;;6315734;28;20965;-81
2021/10/28 05:44:02;;;;;;;14.60;10.93;;;;;;;;;;6298895;28;20020;-84
2021/10/28 05:47:03;;;;;;;16.48;11.73;;;4.70;99.90;;;;;;6297336;28;20755;-83
2021/10/28 05:50:09;;;;;;;21.20;12.70;;;4.20;99.90;;;;;;6257519;28;20587;-84
2021/10/28 05:53:10;;;;;;;16.58;12.50;;;4.50;99.90;;;;;;6259391;28;20028;-83
2021/10/28 05:56:11;;;;;;;20.05;13.50;;;4.30;99.90;;;;;;6274375;28;20048;-82
2021/10/28 05:59:12;;;;;;;21.45;12.63;;;4.40;99.90;;;;;;6274116;28;20028;-80
2021/10/28 06:02:12;;;;;;;18.05;12.82;;;4.40;99.90;;;;;;6274641;28;20033;-81
2021/10/28 06:05:14;;;;;;;18.25;11.40;;;;;;;;;;6257457;28;20394;-82
2021/10/28 06:08:14;;;;;;;17.83;11.35;;;4.80;99.90;;;;;;6293015;28;20020;-83
2021/10/28 06:11:16;;;;;;;16.85;11.77;;;;;;;;;;6257362;28;20036;-83
2021/10/28 06:14:22;;;;;;;15.15;11.48;;;4.70;99.90;;;;;;6282241;28;20020;-84
2021/10/28 06:17:31;;;;;;;13.70;10.18;;;;;;;;;;6283357;28;20040;-83
2021/10/28 06:20:32;;;;;;;15.65;10.85;;;;;;;;;;6287682;28;20032;-84
2021/10/28 06:23:33;;;;;;;18.75;10.77;;;;;;;;;;6278796;28;20371;-83
2021/10/28 06:26:34;;;;;;;14.02;10.68;;;4.60;99.90;;;;;;6293253;28;20024;-84
2021/10/28 06:29:35;;;;;;;13.50;10.15;;;;;;;;;;6295610;28;20347;-84
2021/10/28 06:32:41;;;;;;;12.00;8.65;;;5.30;99.90;;;;;;6278235;28;20025;-83
2021/10/28 06:35:43;;;;;;;12.00;8.52;;;5.10;99.90;;;;;;6278703;28;20036;-83
2021/10/28 06:38:45;;;;;;;11.13;8.90;;;;;;;;;;6262338;28;20638;-84
2021/10/28 06:41:45;;;;;;;13.47;10.20;;;5.10;99.90;;;;;;6278677;28;20020;-84
2021/10/28 06:44:46;;;;;;;11.30;7.53;;;5.00;99.90;;;;;;6282933;28;20285;-83
2021/10/28 06:47:47;;;;;;;11.05;8.43;;;;;;;;;;6302968;28;20040;-84
2021/10/28 06:50:56;;;;;;;15.98;9.10;;;5.30;99.90;;;;;;6300441;28;20467;-84
2021/10/28 06:57:57;;;;;;;11.55;7.45;;;;;;;;;;6294131;28;20052;-82
2021/10/28 07:03:44;;;;;;;10.15;6.20;;;8.20;99.90;;;;;;6295447;28;20056;-82
2021/10/28 07:06:45;;;;;;;7.63;5.50;;;;;;;;;;6269479;28;20489;-83
2021/10/28 07:09:58;;;;;;;9.75;6.22;;;9.60;99.90;;;;;;6293876;28;20017;-82
2021/10/28 07:13:06;;;;;;;7.80;6.47;;;9.90;99.90;;;;;;6279553;28;20028;-84
2021/10/28 07:16:17;;;;;;;6.82;5.57;;;10.30;99.90;;;;;;6264089;28;20060;-84
2021/10/28 07:33:36;;;;;;;7.28;5.82;;;11.90;99.90;;;;;;6225765;28;20033;-83
2021/10/28 07:56:39;;;;;;;7.07;5.93;;;13.40;99.90;;;;;;6240781;28;20049;-83
2021/10/28 08:22:36;;;;;;;4.50;4.03;;;15.80;99.90;;;;;;6292889;28;20024;-83
2021/10/28 08:29:06;;;;;;;6.90;4.72;;;16.40;99.90;;;;;;6278821;28;20033;-83
2021/10/28 08:32:07;;;;;;;6.03;4.53;;;16.80;99.90;;;;;;6280294;28;20036;-85
2021/10/28 08:35:09;;;;;;;6.25;4.75;;;17.30;99.90;;;;;;6300578;28;20028;-83
2021/10/28 08:38:09;;;;;;;4.27;3.80;;;17.60;98.40;;;;;;6283869;28;20085;-83
2021/10/28 08:41:10;;;;;;;5.45;3.80;;;17.60;97.50;;;;;;6299794;28;20262;-83
2021/10/28 08:44:13;;;;;;;5.93;4.30;;;17.80;96.30;;;;;;6296071;28;20056;-83
2021/10/28 08:47:15;;;;;;;5.22;3.88;;;18.20;99.90;;;;;;6300585;28;20036;-83
2021/10/28 08:50:31;;;;;;;5.90;4.13;;;18.10;95.80;;;;;;6300344;28;20023;-80
2021/10/28 08:53:48;;;;;;;6.78;4.03;;;18.10;95.20;;;;;;6306769;28;20501;-83
2021/10/28 09:27:01;;;;;;;5.28;4.00;;;22.10;85.50;;;;;;6292139;28;20044;-84
2021/10/28 09:30:10;;;;;;;5.53;3.55;;;23.00;91.40;;;;;;6266694;28;20115;-85
2021/10/28 09:33:16;;;;;;;4.57;3.58;;;23.00;78.80;;;;;;6260507;28;20052;-84
2021/10/28 09:46:42;;;;;;;4.40;3.80;;;24.80;87.00;;;;;;6294931;28;20032;-85
2021/10/28 09:50:04;;;;;;;12.77;4.78;;;24.70;72.90;;;;;;6259474;28;20029;-88
2021/10/28 09:53:11;;;;;;;4.30;3.90;;;24.50;76.00;;;;;;6266424;28;20024;-86
2021/10/28 09:59:34;;;;;;;4.32;3.92;;;24.40;74.90;;;;;;6269143;28;20029;-83
2021/10/28 10:02:37;;;;;;;4.00;3.60;;;24.30;76.00;;;;;;6297747;28;20115;-82
2021/10/28 10:05:38;;;;;;;5.10;4.10;;;24.40;74.40;;;;;;6263001;28;20060;-84
2021/10/28 10:08:39;;;;;;;9.02;4.15;;;24.30;73.40;;;;;;6286172;28;20028;-82
2021/10/28 10:11:39;;;;;;;6.40;4.18;;;24.40;73.00;;;;;;6281359;28;20386;-83
2021/10/28 10:14:41;;;;;;;5.82;4.20;;;24.30;72.60;;;;;;6278253;28;20040;-80
2021/10/28 10:17:42;;;;;;;5.45;4.32;;;24.30;72.10;;;;;;6278639;28;20040;-81
2021/10/28 10:20:49;;;;;;;5.33;4.00;;;24.50;72.00;;;;;;6278333;28;20032;-83
2021/10/28 12:46:45;;;;;;;5.65;4.82;;;20.80;80.00;;;;;;6243104;28;20072;-81
2021/10/28 12:50:07;;;;;;;8.90;6.03;;;20.70;80.30;;;;;;6218513;28;20038;-81
2021/10/28 13:06:35;;;;;;;8.85;5.90;;;20.20;82.30;;;;;;6280312;28;20044;-81
2021/10/28 13:56:11;;;;;;;8.52;6.10;;;19.30;86.00;;;;;;6315180;28;20097;-81
2021/10/28 15:40:36;;;;;;;5.40;4.57;;;15.90;97.00;;;;;;6303351;28;20127;-81
2021/10/28 15:47:18;;;;;;;7.70;5.05;;;15.70;97.90;;;;;;6278208;28;20039;-83
2021/10/28 15:50:54;;;;;;;8.65;4.93;;;15.40;99.20;;;;;;6278573;28;20112;-83
2021/10/28 16:00:14;;;;;;;4.68;3.80;;;14.70;99.80;;;;;;6301072;28;20031;-80
2021/10/28 16:23:09;;;;;;;5.43;4.65;;;13.50;99.90;;;;;;6280782;28;20111;-80
2021/10/28 16:26:09;;;;;;;11.93;5.05;;;13.20;99.90;;;;;;6265330;28;20031;-81
2021/10/28 16:29:12;;;;;;;7.80;5.85;;;13.10;99.90;;;;;;6296890;28;20046;-79
2021/10/28 16:32:14;;;;;;;11.77;5.50;;;12.90;99.90;;;;;;6317258;28;20484;-83
2021/10/28 16:35:14;;;;;;;8.67;5.67;;;12.80;99.90;;;;;;6276807;28;20031;-81
2021/10/28 16:38:16;;;;;;;7.93;5.43;;;12.60;99.90;;;;;;6262594;28;20482;-81
2021/10/28 16:41:17;;;;;;;7.50;6.03;;;12.50;99.90;;;;;;6292554;28;20035;-82
2021/10/28 16:44:18;;;;;;;7.57;5.43;;;12.30;99.90;;;;;;6270398;28;20040;-84
2021/10/28 16:47:18;;;;;;;8.20;5.32;;;12.40;99.90;;;;;;6262003;28;20043;-83
2021/10/28 16:50:19;;;;;;;8.60;6.45;;;12.30;99.90;;;;;;6275807;28;20032;-81
2021/10/28 16:53:20;;;;;;;9.70;5.47;;;12.10;99.90;;;;;;6291789;28;20104;-82
2021/10/28 16:56:21;;;;;;;9.38;6.05;;;12.10;99.90;;;;;;6259053;28;20143;-84
2021/10/28 16:59:21;;;;;;;9.48;6.22;;;12.00;99.90;;;;;;6263579;28;20482;-85
2021/10/28 17:02:22;;;;;;;7.13;5.40;;;;;;;;;;6258865;28;20033;-85
2021/10/28 17:05:24;;;;;;;9.52;5.55;;;;;;;;;;6265840;28;20490;-79
2021/10/28 17:08:24;;;;;;;9.13;5.97;;;11.70;99.90;;;;;;6271597;28;20024;-84
2021/10/28 17:11:28;;;;;;;7.40;5.82;;;11.90;99.90;;;;;;6274664;28;20107;-85
2021/10/28 17:14:29;;;;;;;8.18;6.00;;;11.50;99.90;;;;;;6274046;28;20051;-83
2021/10/28 17:17:30;;;;;;;8.30;6.30;;;11.40;99.90;;;;;;6258812;28;20048;-82
2021/10/28 17:20:35;;;;;;;11.00;6.50;;;11.10;99.90;;;;;;6258300;28;20193;-85
2021/10/28 17:23:42;;;;;;;10.23;6.70;;;11.10;99.90;;;;;;6259366;28;20478;-83
2021/10/28 17:26:42;;;;;;;15.18;10.35;;;11.00;99.90;;;;;;6260290;28;20086;-86
2021/10/28 17:29:43;;;;;;;18.98;10.80;;;11.00;99.90;;;;;;6246702;28;20119;-84
2021/10/28 17:32:44;;;;;;;10.95;8.65;;;10.70;99.90;;;;;;6278043;28;20024;-84
2021/10/28 17:35:45;;;;;;;11.52;7.38;;;10.50;99.90;;;;;;6282457;28;20028;-82
2021/10/28 17:38:45;;;;;;;10.02;7.43;;;10.40;99.90;;;;;;6296012;28;20107;-84
2021/10/28 17:41:46;;;;;;;17.45;10.68;;;10.60;99.90;;;;;;6297788;28;20020;-83
2021/10/28 17:44:52;;;;;;;17.70;9.18;;;10.50;99.90;;;;;;6280885;28;20523;-83
2021/10/28 17:47:53;;;;;;;9.43;6.43;;;10.80;99.90;;;;;;6263665;28;20024;-84
2021/10/28 17:50:55;;;;;;;9.15;6.25;;;;;;;;;;6253041;28;20078;-82
2021/10/28 17:53:56;;;;;;;8.13;6.70;;;;;;;;;;6263747;28;20029;-84
2021/10/28 17:56:57;;;;;;;8.07;5.97;;;;;;;;;;6315698;28;20858;-83
2021/10/28 17:59:58;;;;;;;8.32;6.47;;;;;;;;;;6301029;28;20020;-84
2021/10/28 18:03:00;;;;;;;12.07;6.80;;;;;;;;;;6309741;28;20058;-86
2021/10/28 18:06:01;;;;;;;7.95;5.78;;;10.30;99.90;;;;;;6288718;28;20024;-85
2021/10/28 18:09:02;;;;;;;9.20;6.63;;;;;;;;;;6260802;28;20085;-86
2021/10/28 18:12:03;;;;;;;12.93;9.20;;;10.20;99.90;;;;;;6274039;28;20685;-84
2021/10/28 18:15:05;;;;;;;11.90;7.65;;;9.80;99.90;;;;;;6291972;28;20032;-84
2021/10/28 18:18:06;;;;;;;11.27;7.90;;;9.90;99.90;;;;;;6282823;28;20067;-88
2021/10/28 18:21:06;;;;;;;9.70;6.90;;;9.70;99.90;;;;;;6279769;28;20478;-87
2021/10/28 18:24:08;;;;;;;12.27;8.15;;;;;;;;;;6262689;28;20032;-89
2021/10/28 18:27:09;;;;;;;10.48;8.25;;;9.60;99.90;;;;;;6272676;28;20386;-86
2021/10/28 18:30:12;;;;;;;11.18;8.40;;;9.60;99.90;;;;;;6266379;28;20035;-86
2021/10/28 18:33:13;;;;;;;9.23;7.47;;;;;;;;;;6263818;28;20470;-85
2021/10/28 18:36:14;;;;;;;8.73;6.93;;;9.10;99.90;;;;;;6299937;28;20610;-83
2021/10/28 18:39:15;;;;;;;7.80;6.20;;;;;;;;;;6293896;28;20031;-83
2021/10/28 18:42:16;;;;;;;10.07;6.57;;;;;;;;;;6300564;28;20157;-83
2021/10/28 18:45:17;;;;;;;7.32;6.55;;;;;;;;;;6299454;28;20024;-85
2021/10/28 18:48:18;;;;;;;11.00;6.82;;;9.20;99.90;;;;;;6291254;28;20025;-83
2021/10/28 18:51:19;;;;;;;7.75;6.30;;;;;;;;;;6276100;28;20020;-85
2021/10/28 18:54:21;;;;;;;8.18;6.63;;;9.10;99.90;;;;;;6284269;28;20070;-85
2021/10/28 18:57:22;;;;;;;10.77;6.80;;;;;;;;;;6288817;28;20044;-84
2021/10/28 19:00:23;;;;;;;10.48;6.32;;;8.90;99.90;;;;;;6295575;28;20616;-84
2021/10/28 19:03:24;;;;;;;8.18;5.85;;;;;;;;;;6285708;28;20114;-85
2021/10/28 19:06:25;;;;;;;8.75;5.43;;;9.00;99.90;;;;;;6284247;28;20025;-84
2021/10/28 19:09:26;;;;;;;7.95;5.25;;;;;;;;;;6261506;28;20064;-84
2021/10/28 19:12:27;;;;;;;7.72;5.07;;;;;;;;;;6273142;28;20017;-86
2021/10/28 19:15:27;;;;;;;7.90;6.18;;;9.00;99.90;;;;;;6297611;28;20035;-85
2021/10/28 19:18:28;;;;;;;8.68;6.10;;;;;;;;;;6265543;28;20515;-87
2021/10/28 19:21:30;;;;;;;8.75;6.70;;;;;;;;;;6310941;28;20497;-83
2021/10/28 19:24:31;;;;;;;10.47;6.73;;;;;;;;;;6301175;28;20031;-83
2021/10/28 19:27:33;;;;;;;8.77;5.43;;;8.90;99.90;;;;;;6298445;28;20021;-84
2021/10/28 19:33:52;;;;;;;6.45;5.35;;;8.70;99.90;;;;;;6286887;28;20330;-82
2021/10/28 19:40:12;;;;;;;8.82;5.68;;;;;;;;;;6304154;28;20044;-83
2021/10/28 19:46:33;;;;;;;9.70;7.00;;;8.40;99.90;;;;;;6267663;28;20036;-83
2021/10/28 19:49:33;;;;;;;11.80;6.78;;;8.30;99.90;;;;;;6262197;28;20043;-84
2021/10/28 19:52:34;;;;;;;10.82;7.05;;;8.10;99.90;;;;;;6282058;28;20462;-84
2021/10/28 19:55:37;;;;;;;9.68;6.55;;;8.10;99.90;;;;;;6276565;28;20099;-84
2021/10/28 19:58:48;;;;;;;10.98;6.57;;;8.70;99.90;;;;;;6260954;28;20127;-86
2021/10/28 20:01:54;;;;;;;10.38;6.18;;;8.40;99.90;;;;;;6266322;28;20483;-84
2021/10/28 20:20:47;;;;;;;9.75;6.30;;;8.30;99.90;;;;;;6284116;28;20024;-82
2021/10/28 20:23:49;;;;;;;8.30;6.28;;;8.10;99.90;;;;;;6263978;28;20059;-81
2021/10/28 20:26:49;;;;;;;10.90;5.78;;;8.00;99.90;;;;;;6292104;28;20028;-81
2021/10/28 20:29:50;;;;;;;7.93;5.82;;;7.90;99.90;;;;;;6315932;28;20024;-85
2021/10/28 20:32:51;;;;;;;7.97;5.72;;;7.80;99.90;;;;;;6293340;28;20032;-83
2021/10/28 20:39:03;;;;;;;8.57;5.68;;;7.90;99.90;;;;;;6293035;28;20481;-85
2021/10/28 20:42:05;;;;;;;8.52;5.53;;;;;;;;;;6259554;28;20514;-84
2021/10/28 20:45:10;;;;;;;8.15;5.97;;;7.70;99.90;;;;;;6308752;28;20021;-82
2021/10/28 20:48:11;;;;;;;11.18;5.82;;;;;;;;;;6261193;28;20029;-82
2021/10/28 20:51:12;;;;;;;8.48;5.72;;;;;;;;;;6276506;28;20494;-80
2021/10/28 20:54:13;;;;;;;6.50;4.93;;;8.30;99.90;;;;;;6276820;28;20020;-80
2021/10/28 20:57:14;;;;;;;8.20;4.90;;;8.50;99.90;;;;;;6260168;28;20049;-80
2021/10/28 21:00:17;;;;;;;7.65;4.90;;;8.50;99.90;;;;;;6276558;28;20087;-82
2021/10/28 21:03:18;;;;;;;5.97;4.53;;;;;;;;;;6275925;28;21017;-80
2021/10/28 21:06:19;;;;;;;6.53;5.05;;;;;;;;;;6278742;28;20466;-81
2021/10/28 21:09:19;;;;;;;6.93;4.40;;;8.70;99.90;;;;;;6278180;28;20151;-83
2021/10/28 21:12:20;;;;;;;6.75;4.63;;;;;;;;;;6258477;28;20032;-83
2021/10/28 21:15:22;;;;;;;5.82;4.75;;;;;;;;;;6290085;28;20064;-81
2021/10/28 21:18:23;;;;;;;5.55;4.63;;;;;;;;;;6290300;28;20502;-81
2021/10/28 21:21:24;;;;;;;6.93;5.18;;;;;;;;;;6273638;28;20090;-81
2021/10/28 21:24:25;;;;;;;7.68;4.93;;;;;;;;;;6297071;28;20063;-82
2021/10/28 21:27:26;;;;;;;9.35;4.88;;;;;;;;;;6316253;28;20063;-81
2021/10/28 21:30:27;;;;;;;5.25;4.75;;;7.20;99.90;;;;;;6316957;28;20024;-81
2021/10/28 21:33:27;;;;;;;7.15;4.80;;;7.30;99.90;;;;;;6316483;28;20485;-82
2021/10/28 21:36:28;;;;;;;8.05;4.82;;;7.20;99.90;;;;;;6282430;28;20048;-82
2021/10/28 21:39:29;;;;;;;7.53;5.05;;;7.10;99.90;;;;;;6282732;28;20024;-81
2021/10/28 21:42:29;;;;;;;5.88;4.63;;;6.90;99.90;;;;;;6298981;28;20090;-81
2021/10/28 21:45:31;;;;;;;5.95;4.88;;;7.20;99.90;;;;;;6299148;28;20476;-81
2021/10/28 21:48:31;;;;;;;6.45;4.57;;;7.50;99.90;;;;;;6299011;28;20032;-81
2021/10/28 21:51:32;;;;;;;7.95;5.10;;;7.00;99.90;;;;;;6317890;28;20039;-84
2021/10/28 21:54:42;;;;;;;6.45;5.18;;;7.60;99.90;;;;;;6303706;28;20454;-82
2021/10/28 22:04:36;;;;;;;7.05;6.38;;;;;;;;;;6296291;28;20025;-81
2021/10/28 22:27:26;;;;;;;7.38;4.95;;;7.00;99.90;;;;;;6280276;28;20025;-81
2021/10/28 22:30:27;;;;;;;5.35;4.40;;;6.70;99.90;;;;;;6279247;28;20507;-81
2021/10/28 22:33:27;;;;;;;6.57;4.50;;;6.70;99.90;;;;;;6278839;28;20033;-82
2021/10/28 22:37:05;;;;;;;5.60;5.00;;;;;;;;;;6295210;28;20458;-81
2021/10/28 22:43:10;;;;;;;5.93;4.57;;;6.70;99.90;;;;;;6279439;28;20031;-81
2021/10/28 22:46:11;;;;;;;5.35;4.57;;;6.70;99.90;;;;;;6285418;28;20028;-81
2021/10/28 22:49:12;;;;;;;6.07;4.85;;;6.50;99.90;;;;;;6286182;28;20446;-82
2021/10/28 22:52:23;;;;;;;6.32;4.75;;;6.50;99.90;;;;;;6263855;28;20032;-85
2021/10/28 22:55:28;;;;;;;6.22;4.60;;;6.60;99.90;;;;;;6279615;28;20185;-82
2021/10/28 22:58:31;;;;;;;5.75;4.43;;;6.30;99.90;;;;;;6278508;28;20512;-82
2021/10/28 23:01:43;;;;;;;5.38;4.55;;;7.50;99.90;;;;;;6278038;28;20119;-81
2021/10/28 23:05:07;;;;;;;4.72;4.13;;;6.40;99.90;;;;;;6264863;28;20028;-82
2021/10/28 23:14:37;;;;;;;10.25;5.72;;;6.60;99.90;;;;;;6277960;28;20045;-81
2021/10/28 23:20:57;;;;;;;6.30;4.75;;;6.50;99.90;;;;;;6282721;28;20036;-82
2021/10/28 23:23:58;;;;;;;5.35;4.38;;;6.50;99.90;;;;;;6287144;28;20481;-81
2021/10/28 23:26:58;;;;;;;6.30;4.18;;;6.30;99.90;;;;;;6276734;28;20029;-81
2021/10/28 23:29:59;;;;;;;5.13;4.38;;;7.90;99.90;;;;;;6293575;28;20036;-81
2021/10/28 23:32:59;;;;;;;8.77;4.13;;;6.40;99.90;;;;;;6260939;28;20061;-81
2021/10/28 23:36:03;;;;;;;4.93;4.30;;;6.50;99.90;;;;;;6277732;28;20040;-83
2021/10/28 23:39:04;;;;;;;5.70;4.28;;;6.60;99.90;;;;;;6318143;28;20036;-81
2021/10/28 23:42:05;;;;;;;7.68;4.63;;;6.70;99.90;;;;;;6265052;28;20082;-81
2021/10/28 23:49:04;;;;;;;5.43;4.32;;;6.30;99.90;;;;;;6295756;28;20028;-81
2021/10/28 23:52:05;;;;;;;5.45;4.40;;;6.30;99.90;;;;;;6260485;28;20037;-83
2021/10/28 23:55:06;;;;;;;4.63;4.18;;;6.40;99.90;;;;;;6260072;28;20391;-81
2021/10/28 23:58:07;;;;;;;5.88;4.43;;;6.20;99.90;;;;;;6260138;28;20185;-83
